Flight Track Log - Related Links

Times and Time Zones

All times are in EDT time to prevent confusion due to time zone crossing. See the FLG4211 flight status page for this flight to view local times or setup timezone preferences in your user account.

Time Position Orientation Groundspeed Altitude Reporting Facility
EDT Latitude Longitude Course Direction KTS MPH feet Rate Location/Type
Sun 12:24:30 PM 42.2017 -83.3583 276° West 145 167 1,500  Level Cleveland Center
Sun 12:25:31 PM 42.1675 -83.3903 215° Southwest 192 221 3,500 1,862 Climbing Cleveland Center
Sun 12:26:26 PM 42.1183 -83.4331 213° Southwest 254 292 5,100 2,390 Climbing Cleveland Center
Sun 12:27:00 PM 42.2213 -83.7143 276° West  Level FlightAware Approximate
Sun 12:27:34 PM 42.0603 -83.5031 222° Southwest 273 314 8,400  Level Cleveland Center
Sun 12:28:00 PM 42.2300 -83.8363 276° West  Level FlightAware Approximate
Sun 12:28:29 PM 42.0728 -83.5903 281° West 305 351 9,900  Level Cleveland Center
Sun 12:29:00 PM 42.2388 -83.9584 276° West  Level FlightAware Approximate
Sun 12:29:34 PM 42.1111 -83.7097 293° West 324 373 11,100  Level Cleveland Center
Sun 12:30:34 PM 42.1456 -83.8264 292° West 336 387 12,000 403 Climbing Cleveland Center
Sun 12:31:33 PM 42.1839 -83.9461 293° West 347 399 11,900  Descending Cleveland Center
Sun 12:32:34 PM 42.2142 -84.0458 292° West 352 405 12,000 50 Climbing Cleveland Center
Sun 12:33:33 PM 42.2561 -84.1772 293° West 352 405 12,000  Level Cleveland Center
Sun 12:34:33 PM 42.2603 -84.3036 273° West 345 397 12,000 -121 Level Cleveland Center
Sun 12:36:51 PM 42.2569 -84.6025 269° West 355 409 11,600 -302 Descending Chicago Center
Sun 12:37:52 PM 42.2544 -84.7367 269° West 357 411 11,000 -390 Descending Chicago Center
Sun 12:38:54 PM 42.2472 -84.8839 266° West 338 389 10,800 -774 Descending Chicago Center
Sun 12:39:56 PM 42.2169 -84.9831 248° West 298 343 9,400 -1,355 Descending Chicago Center
Sun 12:40:58 PM 42.1897 -85.0672 246° West 274 315 8,000 -1,597 Descending Chicago Center
Sun 12:42:00 PM 42.1608 -85.1547 246° West 262 302 6,100 -2,274 Descending Chicago Center
Sun 12:43:02 PM 42.1242 -85.2608 245° Southwest 262 302 3,300 -1,597 Descending Chicago Center
Sun 12:44:04 PM 42.0978 -85.3411 246° West 246 283 2,800 -242 Descending Chicago Center
Sun 12:45:06 PM 42.0894 -85.4139 261° West 212 244 2,800  Level Chicago Center
Sun 12:46:08 PM 42.0858 -85.4889 266° West 206 237 2,800  Level Chicago Center

Login

Don't have an account? Register now (free) for customized features, flight alerts, and more!